createdAt,value
2022-08-05T00:02:53.771Z,69.89
2022-08-05T00:12:57.044Z,70.35
2022-08-05T00:23:02.567Z,70.50
2022-08-05T00:34:53.691Z,71.00
2022-08-05T00:43:47.240Z,71.26
2022-08-05T00:54:02.248Z,70.83
2022-08-05T01:04:13.686Z,71.27
2022-08-05T01:14:27.839Z,71.39
2022-08-05T01:24:47.933Z,71.95
2022-08-05T01:35:03.879Z,71.69
2022-08-05T01:45:15.639Z,72.21
2022-08-05T01:55:22.756Z,71.78
2022-08-05T02:05:30.628Z,72.21
2022-08-05T02:15:46.879Z,72.58
2022-08-05T02:25:51.183Z,72.60
2022-08-05T02:36:01.121Z,72.55
2022-08-05T02:46:04.720Z,72.71
2022-08-05T02:56:09.669Z,72.82
2022-08-05T03:06:55.754Z,73.23
2022-08-05T03:16:43.042Z,73.58
2022-08-05T03:26:49.314Z,73.04
2022-08-05T03:36:51.529Z,73.16
2022-08-05T03:46:54.496Z,72.90
2022-08-05T03:56:59.859Z,72.70
2022-08-05T04:07:03.973Z,72.55
2022-08-05T04:17:08.355Z,70.65
2022-08-05T04:27:13.923Z,66.99
2022-08-05T04:37:17.424Z,64.78
2022-08-05T04:47:20.182Z,62.75
2022-08-05T04:57:22.479Z,61.59
2022-08-05T05:07:35.375Z,59.12
2022-08-05T05:17:55.508Z,52.42
2022-08-05T05:27:59.442Z,45.89
2022-08-05T05:38:03.476Z,38.84
2022-08-05T05:48:08.626Z,34.71
2022-08-05T05:58:10.875Z,29.72
2022-08-05T06:08:13.454Z,26.03
2022-08-05T06:18:15.504Z,23.73
2022-08-05T06:28:21.107Z,21.41
2022-08-05T06:38:36.297Z,18.28
2022-08-05T06:48:55.379Z,16.67
2022-08-05T06:59:00.827Z,15.77
2022-08-05T07:09:04.724Z,13.89
2022-08-05T07:19:07.023Z,12.70
2022-08-05T07:29:10.114Z,11.97
2022-08-05T07:39:50.396Z,11.47
2022-08-05T07:49:34.300Z,9.95
2022-08-05T07:59:46.890Z,9.23
2022-08-05T08:09:53.039Z,8.48
2022-08-05T08:20:22.991Z,8.14
2022-08-05T08:30:32.644Z,7.26
2022-08-05T08:40:38.857Z,6.35
2022-08-05T08:51:22.246Z,5.92
2022-08-05T09:01:07.630Z,5.68
2022-08-05T09:11:16.074Z,5.51
2022-08-05T09:22:22.942Z,4.83
2022-08-05T09:32:41.866Z,4.32
2022-08-05T09:42:08.446Z,3.77
2022-08-05T09:52:24.016Z,3.53
2022-08-05T10:13:17.780Z,3.53
2022-08-05T10:23:55.326Z,4.60
2022-08-05T10:33:45.960Z,5.04
2022-08-05T10:44:01.679Z,6.01
2022-08-05T10:54:28.282Z,10.40
2022-08-05T11:04:34.344Z,15.99
2022-08-05T11:26:05.273Z,24.22
2022-08-05T11:36:07.672Z,26.52
2022-08-05T11:46:16.001Z,29.38
2022-08-05T11:56:50.505Z,30.56
2022-08-05T12:06:58.703Z,33.04
2022-08-05T12:17:57.862Z,33.69
2022-08-05T12:27:33.777Z,33.61
2022-08-05T12:37:37.099Z,33.58
2022-08-05T12:48:27.716Z,34.53
2022-08-05T12:58:48.496Z,34.76
2022-08-05T13:08:55.014Z,34.86
2022-08-05T13:18:58.586Z,35.18
2022-08-05T13:29:01.171Z,35.78
2022-08-05T13:39:08.475Z,35.96
2022-08-05T13:49:26.964Z,36.70
2022-08-05T13:59:30.693Z,36.93
2022-08-05T14:09:34.605Z,36.85
2022-08-05T14:19:54.103Z,37.04
2022-08-05T14:29:58.246Z,37.17
2022-08-05T14:40:01.414Z,36.92
2022-08-05T14:50:18.155Z,36.93
2022-08-05T15:00:21.722Z,37.40
2022-08-05T15:10:30.830Z,37.23
2022-08-05T15:20:38.969Z,37.15
2022-08-05T15:30:41.868Z,37.94
2022-08-05T15:41:20.310Z,38.95
2022-08-05T15:52:13.487Z,38.30
2022-08-05T16:01:53.576Z,38.64
2022-08-05T16:11:58.570Z,39.23
2022-08-05T16:22:03.002Z,39.61
2022-08-05T16:32:09.701Z,40.20
2022-08-05T16:42:17.551Z,40.53
2022-08-05T16:52:21.575Z,40.85
2022-08-05T17:02:24.313Z,41.44
2022-08-05T17:12:50.257Z,42.36
2022-08-05T17:22:55.413Z,43.72
2022-08-05T17:32:57.945Z,44.80
2022-08-05T17:43:02.348Z,47.22
2022-08-05T17:53:09.900Z,49.77
2022-08-05T18:03:56.327Z,51.62
2022-08-05T18:13:43.955Z,53.41
2022-08-05T18:23:47.007Z,54.65
2022-08-05T18:33:53.970Z,55.71
2022-08-05T18:44:05.850Z,57.66
2022-08-05T18:54:09.061Z,58.90
2022-08-05T19:04:12.332Z,59.69
2022-08-05T19:14:53.379Z,61.47
2022-08-05T19:24:37.758Z,62.08
2022-08-05T19:34:57.882Z,62.68
2022-08-05T19:45:02.154Z,63.03
2022-08-05T19:56:11.445Z,63.94
2022-08-05T20:05:49.765Z,64.98
2022-08-05T20:15:56.118Z,66.19
2022-08-05T20:26:00.018Z,66.49
2022-08-05T20:36:02.350Z,66.91
2022-08-05T20:46:07.003Z,66.79
2022-08-05T20:56:11.448Z,66.11
2022-08-05T21:06:27.673Z,66.46
2022-08-05T21:16:33.092Z,67.36
2022-08-05T21:26:37.176Z,67.28
2022-08-05T21:36:42.345Z,65.94
2022-08-05T21:46:48.625Z,66.23
2022-08-05T21:56:51.403Z,66.53
2022-08-05T22:06:54.280Z,67.10
2022-08-05T22:17:03.074Z,67.05
2022-08-05T22:27:25.831Z,67.10
2022-08-05T22:37:59.279Z,67.81
2022-08-05T22:48:01.952Z,68.43
2022-08-05T22:58:04.400Z,68.85
2022-08-05T23:08:07.225Z,69.11
2022-08-05T23:18:15.859Z,69.90
2022-08-05T23:28:18.154Z,70.55
2022-08-05T23:38:20.669Z,70.87
2022-08-05T23:48:22.528Z,71.69
2022-08-05T23:58:31.758Z,72.49
